»·PEaware :: UAL919 EGLL-KIAD

UAL919 :: EGLL-KIAD

FLIGHT INFORMATION

Flight Status: Arrived
Operator:
United Airlines
More flights by this operator :: More flights under this callsign
Pilot: Drew L. (13237)
Aircraft: Unknown
(B77L)
More flights by this aircraft type
Origin: EGLL Heathrow
United Kingdom
Destination: KIAD Washington Dulles Intl
United States
More flights between these airports :: More routes between these airports
Route: CPT3F CPT UL9 KENET UN14 OKTAD Q60 LANON UL18 LIPGO/M083F380 RESNO NATE 54N050W/N0483F380 NATE NEEKO/N0481F400 N478A TOPPS BAF HYPER7
File this flight plan on PilotEdge
Remarks: PBN / A1B1C1D1L1O1S2 DOF / 180325 REG / N712SB EET / EISN0030 EGGX0102 56N020W0143 CZQX0233 56N040W0322 54N050W0413 CZUL0452 CZQX0505 CZUL0518 CZQM0530 KZBW0602 KZNY0650 KZDC0721 OPR / UAL PER / D RALT / BIAR CYJT RMK / TCAS SIMBRIEF
Altitude:
(Current/Filed)
38,000ft
Speed:
(Current/Filed)
479kts
Departed: 24-Mar-18 10:19 PM
Arrived: 25-Mar-18 07:09 AM
Distance/Time
Traveled:
3184nm/8:50
Distance/Time
To Go:
Arrived

Flight Plot

Page will automatically refresh every two minutes.

Flight plan parsing failed; only flown route is shown


Map Options




Map Legend


Flown Route
Filed Route
Departure Airport
Arrival Airport
Navaid (VOR, NDB)
Fix

Horizontal Profiles

Position Reports

Time Latitude Longitude Heading Altitude Ground
Speed
24-Mar-18 21:50 51.471558 -0.462058 55 96ft 0kts
24-Mar-18 21:51 51.471558 -0.462058 55 96ft 0kts
24-Mar-18 21:52 51.471558 -0.462058 55 96ft 0kts
24-Mar-18 21:53 51.471558 -0.462058 55 96ft 0kts
24-Mar-18 21:54 51.471558 -0.462058 55 96ft 0kts
24-Mar-18 21:55 51.471558 -0.462058 55 96ft 0kts
24-Mar-18 21:56 51.471558 -0.462058 55 96ft 0kts
24-Mar-18 21:57 51.471558 -0.462058 55 96ft 0kts
24-Mar-18 21:58 51.471558 -0.462058 55 96ft 0kts
24-Mar-18 21:59 51.471558 -0.462058 55 96ft 0kts
24-Mar-18 22:00 51.471558 -0.462058 55 96ft 0kts
24-Mar-18 22:01 51.471558 -0.462058 55 96ft 0kts
24-Mar-18 22:02 51.471558 -0.462058 55 96ft 0kts
24-Mar-18 22:03 51.471558 -0.462058 55 96ft 0kts
24-Mar-18 22:04 51.471555 -0.462065 55 96ft 0kts
24-Mar-18 22:05 51.471117 -0.462627 2 96ft 2kts
24-Mar-18 22:06 51.470706 -0.462399 325 96ft 0kts
24-Mar-18 22:07 51.470706 -0.462399 325 96ft 0kts
24-Mar-18 22:08 51.470706 -0.462399 325 96ft 0kts
24-Mar-18 22:09 51.471439 -0.463201 325 96ft 14kts
24-Mar-18 22:10 51.472482 -0.466775 306 96ft 3kts
24-Mar-18 22:11 51.474844 -0.467468 24 96ft 10kts
24-Mar-18 22:12 51.475174 -0.460316 89 96ft 19kts
24-Mar-18 22:13 51.475231 -0.457847 80 96ft 0kts
24-Mar-18 22:14 51.475989 -0.451784 92 96ft 25kts
24-Mar-18 22:15 51.475926 -0.440840 88 96ft 24kts
24-Mar-18 22:16 51.477270 -0.433689 8 96ft 10kts
24-Mar-18 22:17 51.477670 -0.434066 268 96ft 0kts
24-Mar-18 22:18 51.477506 -0.477214 271 737ft 187kts
24-Mar-18 22:19 51.474055 -0.569938 266 3999ft 239kts
24-Mar-18 22:20 51.466082 -0.689249 265 5855ft 276kts
24-Mar-18 22:21 51.475629 -0.809325 287 8487ft 276kts
24-Mar-18 22:22 51.498260 -0.934260 286 11620ft 320kts
24-Mar-18 22:23 51.525224 -1.084235 285 14664ft 369kts
24-Mar-18 22:24 51.554328 -1.247605 284 18258ft 391kts
24-Mar-18 22:25 51.584720 -1.419779 283 21648ft 407kts
24-Mar-18 22:26 51.615954 -1.598576 282 24750ft 423kts
24-Mar-18 22:27 51.648899 -1.784807 281 27490ft 441kts
24-Mar-18 22:28 51.681784 -1.979130 280 29991ft 457kts
24-Mar-18 22:29 51.718674 -2.177537 288 32369ft 465kts
24-Mar-18 22:30 51.770688 -2.368530 290 34590ft 465kts
24-Mar-18 22:31 51.821532 -2.561092 289 36449ft 465kts
24-Mar-18 22:32 51.861354 -2.759717 286 37776ft 467kts
24-Mar-18 22:33 51.901857 -2.959117 287 37798ft 464kts
24-Mar-18 22:34 51.941158 -3.158333 287 37872ft 464kts
24-Mar-18 22:35 51.998907 -3.344580 304 37875ft 464kts
24-Mar-18 22:36 52.073021 -3.516024 303 37878ft 464kts
24-Mar-18 22:37 52.146063 -3.689452 303 37881ft 463kts
24-Mar-18 22:38 52.219412 -3.861937 303 37874ft 463kts
24-Mar-18 22:39 52.292392 -4.035129 303 37877ft 463kts
24-Mar-18 22:40 52.364575 -4.210217 303 37881ft 463kts
24-Mar-18 22:41 52.437499 -4.383708 308 37895ft 463kts
24-Mar-18 22:42 52.526194 -4.537688 312 37908ft 463kts
24-Mar-18 22:43 52.613824 -4.692544 311 37926ft 462kts
24-Mar-18 22:44 52.701280 -4.847625 311 37912ft 463kts
24-Mar-18 22:45 52.788534 -5.003737 311 37889ft 461kts
24-Mar-18 22:46 52.875820 -5.159085 312 37892ft 461kts
24-Mar-18 22:47 52.962476 -5.315012 311 37895ft 460kts
24-Mar-18 22:48 53.048640 -5.472956 308 37901ft 460kts
24-Mar-18 22:49 53.106778 -5.660779 291 37911ft 458kts
24-Mar-18 22:50 53.153768 -5.858033 292 37924ft 459kts
24-Mar-18 22:51 53.202018 -6.055355 293 37936ft 458kts
24-Mar-18 22:52 53.251411 -6.250762 292 37938ft 457kts
24-Mar-18 22:53 53.299753 -6.447363 292 37941ft 456kts
24-Mar-18 22:54 53.347471 -6.643860 292 37936ft 456kts
24-Mar-18 22:55 53.394771 -6.840619 292 37936ft 455kts
24-Mar-18 22:56 53.441853 -7.038244 292 37924ft 455kts
24-Mar-18 22:57 53.488387 -7.235347 292 37926ft 455kts
24-Mar-18 22:58 53.534527 -7.432615 292 37901ft 454kts
24-Mar-18 22:59 53.580486 -7.630929 291 37887ft 454kts
24-Mar-18 23:00 53.618323 -7.795592 291 37876ft 453kts
24-Mar-18 23:01 53.670914 -8.026614 291 37928ft 453kts
24-Mar-18 23:02 53.715733 -8.225517 291 37934ft 452kts
24-Mar-18 23:03 53.760040 -8.424026 291 37938ft 452kts
24-Mar-18 23:04 53.804068 -8.623132 291 37934ft 450kts
24-Mar-18 23:05 53.840310 -8.788548 291 37938ft 450kts
24-Mar-18 23:06 53.883411 -8.986979 291 37940ft 449kts
24-Mar-18 23:07 53.926236 -9.186059 291 37919ft 448kts
24-Mar-18 23:08 53.968496 -9.384430 291 37901ft 447kts
24-Mar-18 23:09 54.010365 -9.582893 290 37890ft 446kts
24-Mar-18 23:10 54.051979 -9.782120 290 37883ft 446kts
24-Mar-18 23:11 54.093053 -9.980714 290 37878ft 445kts
24-Mar-18 23:12 54.133802 -10.179713 290 37875ft 445kts
24-Mar-18 23:13 54.174354 -10.379690 290 37870ft 445kts
24-Mar-18 23:14 54.214375 -10.579183 290 37872ft 444kts
24-Mar-18 23:15 54.254001 -10.778691 290 37871ft 443kts
24-Mar-18 23:16 54.293339 -10.978781 289 37870ft 442kts
24-Mar-18 23:17 54.332084 -11.177888 289 37883ft 441kts
24-Mar-18 23:18 54.370521 -11.377504 289 37880ft 439kts
24-Mar-18 23:19 54.408400 -11.576276 289 37879ft 438kts
24-Mar-18 23:20 54.445819 -11.774710 289 37878ft 437kts
24-Mar-18 23:21 54.483001 -11.973948 289 37877ft 437kts
24-Mar-18 23:22 54.519639 -12.172421 288 37877ft 434kts
24-Mar-18 23:23 54.555870 -12.370785 288 37876ft 435kts
24-Mar-18 23:24 54.591881 -12.570081 288 37875ft 434kts
24-Mar-18 23:25 54.627450 -12.769057 288 37875ft 434kts
24-Mar-18 23:26 54.662657 -12.968232 288 37875ft 433kts
24-Mar-18 23:27 54.697606 -13.168128 288 37875ft 433kts
24-Mar-18 23:28 54.732006 -13.367060 288 37826ft 431kts
24-Mar-18 23:29 54.766064 -13.566276 288 37827ft 431kts
24-Mar-18 23:30 54.799675 -13.765098 287 37828ft 430kts
24-Mar-18 23:31 54.832899 -13.963870 287 37829ft 430kts
24-Mar-18 23:32 54.865810 -14.163020 287 37829ft 426kts
24-Mar-18 23:33 54.898131 -14.360908 287 37830ft 426kts
24-Mar-18 23:34 54.930737 -14.558668 287 37831ft 425kts
24-Mar-18 23:35 54.962180 -14.757472 287 37832ft 425kts
24-Mar-18 23:36 54.993126 -14.955808 287 37833ft 424kts
24-Mar-18 23:37 55.019777 -15.155994 283 37834ft 425kts
24-Mar-18 23:38 55.042919 -15.358152 283 37811ft 423kts
24-Mar-18 23:39 55.065970 -15.559196 283 37810ft 422kts
24-Mar-18 23:40 55.090527 -15.759906 284 37809ft 422kts
24-Mar-18 23:41 55.114187 -15.960466 283 37808ft 422kts
24-Mar-18 23:42 55.137167 -16.161401 283 37808ft 418kts
24-Mar-18 23:43 55.159571 -16.361010 283 37807ft 419kts
24-Mar-18 23:44 55.181618 -16.560697 283 37807ft 418kts
24-Mar-18 23:45 55.203360 -16.760842 283 37806ft 417kts
24-Mar-18 23:46 55.224609 -16.959655 283 37805ft 415kts
24-Mar-18 23:47 55.245483 -17.158180 283 37805ft 415kts
24-Mar-18 23:48 55.266058 -17.357145 282 37804ft 413kts
24-Mar-18 23:49 55.286226 -17.555490 282 37803ft 413kts
24-Mar-18 23:50 55.306123 -17.754554 282 37860ft 413kts
24-Mar-18 23:51 55.325711 -17.953977 282 37898ft 415kts
24-Mar-18 23:52 55.344897 -18.152769 281 37895ft 410kts
24-Mar-18 23:53 55.363700 -18.351016 281 37888ft 410kts
24-Mar-18 23:54 55.382074 -18.548477 281 37889ft 409kts
24-Mar-18 23:55 55.400073 -18.745417 281 37886ft 407kts
24-Mar-18 23:56 55.417719 -18.942072 281 37883ft 404kts
24-Mar-18 23:57 55.434900 -19.137274 281 37881ft 403kts
24-Mar-18 23:58 55.451784 -19.332768 280 37878ft 402kts
24-Mar-18 23:59 55.468287 -19.527595 280 37876ft 402kts
25-Mar-18 00:00 55.484476 -19.722549 280 37874ft 402kts
25-Mar-18 00:01 55.500417 -19.918418 280 37871ft 402kts
25-Mar-18 00:02 55.516000 -20.113880 280 37869ft 401kts
25-Mar-18 00:03 55.531197 -20.308519 280 37860ft 401kts
25-Mar-18 00:04 55.546100 -20.503510 279 37855ft 399kts
25-Mar-18 00:05 55.560578 -20.697072 279 37860ft 397kts
25-Mar-18 00:06 55.574674 -20.889711 279 37859ft 395kts
25-Mar-18 00:07 55.588452 -21.082273 279 37857ft 393kts
25-Mar-18 00:08 55.601834 -21.273622 278 37856ft 392kts
25-Mar-18 00:09 55.614919 -21.465099 278 37854ft 391kts
25-Mar-18 00:10 55.627662 -21.656059 278 37852ft 391kts
25-Mar-18 00:11 55.640130 -21.847480 278 37851ft 392kts
25-Mar-18 00:12 55.652351 -22.039844 278 37849ft 392kts
25-Mar-18 00:13 55.664226 -22.231578 277 37847ft 392kts
25-Mar-18 00:14 55.675783 -22.423098 277 37846ft 390kts
25-Mar-18 00:15 55.687040 -22.614708 277 37846ft 389kts
25-Mar-18 00:16 55.697925 -22.805115 277 37719ft 387kts
25-Mar-18 00:17 55.708464 -22.994704 277 37716ft 386kts
25-Mar-18 00:18 55.718719 -23.184526 276 37713ft 385kts
25-Mar-18 00:19 55.728642 -23.373702 276 37711ft 386kts
25-Mar-18 00:20 55.738290 -23.563324 276 37796ft 387kts
25-Mar-18 00:21 55.747698 -23.754092 275 37897ft 388kts
25-Mar-18 00:22 55.756805 -23.944822 275 37896ft 388kts
25-Mar-18 00:23 55.765652 -24.136446 275 37894ft 388kts
25-Mar-18 00:24 55.774216 -24.327227 275 37896ft 387kts
25-Mar-18 00:25 55.782392 -24.518034 274 37891ft 387kts
25-Mar-18 00:26 55.790296 -24.709015 274 37889ft 386kts
25-Mar-18 00:27 55.797847 -24.898403 274 37889ft 385kts
25-Mar-18 00:28 55.805173 -25.089416 274 37884ft 387kts
25-Mar-18 00:29 55.812193 -25.278802 274 37894ft 385kts
25-Mar-18 00:30 55.818902 -25.471481 273 37884ft 394kts
25-Mar-18 00:31 55.825418 -25.663705 273 37877ft 379kts
25-Mar-18 00:32 55.831448 -25.851733 273 37884ft 388kts
25-Mar-18 00:33 55.837359 -26.046025 273 37875ft 395kts
25-Mar-18 00:34 55.842914 -26.236179 272 37878ft 378kts
25-Mar-18 00:35 55.848054 -26.425425 272 37874ft 387kts
25-Mar-18 00:36 55.853041 -26.617070 272 37877ft 390kts
25-Mar-18 00:37 55.857649 -26.806918 272 37869ft 382kts
25-Mar-18 00:38 55.862046 -26.997469 271 37870ft 389kts
25-Mar-18 00:39 55.866072 -27.190323 271 37880ft 389kts
25-Mar-18 00:40 55.869803 -27.378959 271 37864ft 377kts
25-Mar-18 00:41 55.873278 -27.570151 271 37887ft 393kts
25-Mar-18 00:42 55.876468 -27.764365 271 37895ft 384kts
25-Mar-18 00:43 55.879303 -27.953887 271 37888ft 380kts
25-Mar-18 00:44 55.881828 -28.142548 270 37885ft 387kts
25-Mar-18 00:45 55.884137 -28.334971 270 37886ft 385kts
25-Mar-18 00:46 55.886125 -28.525465 270 37880ft 389kts
25-Mar-18 00:47 55.887838 -28.717067 270 37897ft 387kts
25-Mar-18 00:48 55.889222 -28.909451 269 37828ft 387kts
25-Mar-18 00:49 55.890312 -29.100749 269 37835ft 381kts
25-Mar-18 00:50 55.891135 -29.291828 268 37835ft 390kts
25-Mar-18 00:51 55.891639 -29.483908 268 37829ft 386kts
25-Mar-18 00:52 55.891845 -29.676925 268 37834ft 392kts
25-Mar-18 00:53 55.891703 -29.870085 268 37836ft 391kts
25-Mar-18 00:54 55.891331 -30.062510 268 37835ft 387kts
25-Mar-18 00:55 55.890667 -30.255608 267 37825ft 391kts
25-Mar-18 00:56 55.889660 -30.446425 267 37818ft 383kts
25-Mar-18 00:57 55.888380 -30.637903 267 37830ft 392kts
25-Mar-18 00:58 55.886712 -30.831333 267 37828ft 388kts
25-Mar-18 00:59 55.884793 -31.025057 266 37830ft 394kts
25-Mar-18 01:00 55.882590 -31.220599 266 37835ft 389kts
25-Mar-18 01:01 55.880090 -31.413938 266 37839ft 394kts
25-Mar-18 01:02 55.877198 -31.608861 266 37820ft 386kts
25-Mar-18 01:03 55.874066 -31.800744 265 37834ft 388kts
25-Mar-18 01:04 55.870678 -31.994498 265 37833ft 387kts
25-Mar-18 01:05 55.866975 -32.186110 265 37841ft 390kts
25-Mar-18 01:06 55.862929 -32.379110 265 37837ft 388kts
25-Mar-18 01:07 55.858577 -32.572828 265 37841ft 396kts
25-Mar-18 01:08 55.853980 -32.765465 265 37826ft 385kts
25-Mar-18 01:09 55.849063 -32.956197 264 37842ft 389kts
25-Mar-18 01:10 55.843755 -33.151782 264 37839ft 398kts
25-Mar-18 01:11 55.838163 -33.346856 264 37841ft 390kts
25-Mar-18 01:12 55.832374 -33.536924 264 37837ft 392kts
25-Mar-18 01:13 55.826137 -33.734336 264 37843ft 403kts
25-Mar-18 01:14 55.819618 -33.928646 264 37843ft 391kts
25-Mar-18 01:15 55.812817 -34.121462 264 37848ft 392kts
25-Mar-18 01:16 55.805641 -34.316857 263 37847ft 397kts
25-Mar-18 01:17 55.798236 -34.510192 263 37847ft 393kts
25-Mar-18 01:18 55.790505 -34.706115 262 37842ft 394kts
25-Mar-18 01:19 55.782582 -34.896173 262 37844ft 386kts
25-Mar-18 01:20 55.775657 -35.057519 262 37835ft 398kts
25-Mar-18 01:21 55.765528 -35.285880 262 37840ft 395kts
25-Mar-18 01:22 55.756539 -35.480206 262 37840ft 396kts
25-Mar-18 01:23 55.748795 -35.642593 262 37840ft 396kts
25-Mar-18 01:24 55.739173 -35.838347 261 37841ft 397kts
25-Mar-18 01:25 55.727585 -36.066008 261 37841ft 398kts
25-Mar-18 01:26 55.719045 -36.228669 261 37841ft 397kts
25-Mar-18 01:27 55.708477 -36.424383 261 37842ft 398kts
25-Mar-18 01:28 55.697632 -36.619406 261 37842ft 398kts
25-Mar-18 01:29 55.686474 -36.814403 260 37842ft 398kts
25-Mar-18 01:30 55.674967 -37.009928 260 37843ft 398kts
25-Mar-18 01:31 55.663175 -37.204963 260 37852ft 399kts
25-Mar-18 01:32 55.651004 -37.400945 260 37852ft 400kts
25-Mar-18 01:33 55.638534 -37.596631 260 37853ft 401kts
25-Mar-18 01:34 55.625711 -37.792806 260 37853ft 402kts
25-Mar-18 01:35 55.612511 -37.989809 260 37853ft 402kts
25-Mar-18 01:36 55.599007 -38.186505 259 37854ft 404kts
25-Mar-18 01:37 55.585172 -38.383305 259 37854ft 404kts
25-Mar-18 01:38 55.571010 -38.580128 259 37854ft 403kts
25-Mar-18 01:39 55.556583 -38.776131 259 37855ft 402kts
25-Mar-18 01:40 55.541796 -38.972629 259 37855ft 403kts
25-Mar-18 01:41 55.526696 -39.168942 259 37856ft 404kts
25-Mar-18 01:42 55.511276 -39.365180 258 37856ft 405kts
25-Mar-18 01:43 55.495445 -39.562474 258 37856ft 405kts
25-Mar-18 01:44 55.479318 -39.759362 258 37857ft 406kts
25-Mar-18 01:45 55.462853 -39.956344 258 37857ft 407kts
25-Mar-18 01:46 55.445975 -40.154288 258 37858ft 408kts
25-Mar-18 01:47 55.428804 -40.351718 258 37858ft 408kts
25-Mar-18 01:48 55.411340 -40.548794 258 37859ft 407kts
25-Mar-18 01:49 55.393524 -40.746062 257 37859ft 407kts
25-Mar-18 01:50 55.375400 -40.943103 257 37859ft 412kts
25-Mar-18 01:51 55.356563 -41.144001 257 37860ft 416kts
25-Mar-18 01:52 55.337428 -41.344437 257 37861ft 416kts
25-Mar-18 01:53 55.317907 -41.545349 257 38135ft 423kts
25-Mar-18 01:54 55.297689 -41.749621 257 39662ft 426kts
25-Mar-18 01:55 55.276997 -41.955097 257 39857ft 428kts
25-Mar-18 01:56 55.255931 -42.160582 257 39857ft 429kts
25-Mar-18 01:57 55.234429 -42.366754 256 39858ft 429kts
25-Mar-18 01:58 55.212643 -42.572095 256 39859ft 429kts
25-Mar-18 01:59 55.190525 -42.777175 256 39860ft 429kts
25-Mar-18 02:00 55.167983 -42.982629 256 39860ft 429kts
25-Mar-18 02:01 55.145169 -43.187244 256 39860ft 429kts
25-Mar-18 02:02 55.121997 -43.391785 256 39861ft 430kts
25-Mar-18 02:03 55.098356 -43.597178 256 39862ft 430kts
25-Mar-18 02:04 55.074463 -43.801548 255 39863ft 430kts
25-Mar-18 02:05 55.050134 -44.006389 255 39864ft 430kts
25-Mar-18 02:06 55.025499 -44.210715 255 39864ft 432kts
25-Mar-18 02:07 55.000499 -44.414977 255 39865ft 431kts
25-Mar-18 02:08 54.975080 -44.619643 255 39866ft 431kts
25-Mar-18 02:09 54.949404 -44.823302 255 39867ft 431kts
25-Mar-18 02:10 54.923386 -45.026741 254 39868ft 431kts
25-Mar-18 02:11 54.896952 -45.230559 254 39869ft 431kts
25-Mar-18 02:12 54.870238 -45.433561 254 39870ft 431kts
25-Mar-18 02:13 54.843187 -45.636326 254 39949ft 433kts
25-Mar-18 02:14 54.815659 -45.839845 254 39950ft 432kts
25-Mar-18 02:15 54.787909 -46.042229 254 39950ft 432kts
25-Mar-18 02:16 54.759665 -46.245469 254 39950ft 433kts
25-Mar-18 02:17 54.731174 -46.447774 253 39951ft 433kts
25-Mar-18 02:18 54.702341 -46.649839 253 39951ft 433kts
25-Mar-18 02:19 54.673002 -46.852784 253 39951ft 434kts
25-Mar-18 02:20 54.643390 -47.055024 253 39961ft 435kts
25-Mar-18 02:21 54.613372 -47.257431 253 39962ft 436kts
25-Mar-18 02:22 54.582905 -47.460352 253 40034ft 436kts
25-Mar-18 02:23 54.552682 -47.663034 253 40235ft 439kts
25-Mar-18 02:24 54.521050 -47.865575 252 40246ft 438kts
25-Mar-18 02:25 54.486086 -48.066770 247 40279ft 437kts
25-Mar-18 02:26 54.437958 -48.258395 245 40286ft 437kts
25-Mar-18 02:27 54.390133 -48.450918 245 40293ft 438kts
25-Mar-18 02:28 54.343334 -48.643671 246 40300ft 438kts
25-Mar-18 02:29 54.296322 -48.836077 246 40306ft 439kts
25-Mar-18 02:30 54.248344 -49.028828 245 40313ft 440kts
25-Mar-18 02:31 54.200096 -49.220812 245 40320ft 441kts
25-Mar-18 02:32 54.151431 -49.412785 245 40326ft 441kts
25-Mar-18 02:33 54.102804 -49.605622 245 40332ft 442kts
25-Mar-18 02:34 54.053173 -49.796737 245 40339ft 441kts
25-Mar-18 02:35 54.003301 -49.987355 245 40345ft 441kts
25-Mar-18 02:36 53.955868 -50.180405 246 40351ft 442kts
25-Mar-18 02:37 53.908586 -50.372555 246 40357ft 441kts
25-Mar-18 02:38 53.860879 -50.564741 246 40407ft 441kts
25-Mar-18 02:39 53.814305 -50.757437 246 40487ft 444kts
25-Mar-18 02:40 53.766531 -50.949421 246 40491ft 443kts
25-Mar-18 02:41 53.718091 -51.141669 245 40496ft 444kts
25-Mar-18 02:42 53.669458 -51.332909 245 40501ft 444kts
25-Mar-18 02:43 53.620522 -51.523688 245 40505ft 444kts
25-Mar-18 02:44 53.571032 -51.714985 245 40509ft 445kts
25-Mar-18 02:45 53.521391 -51.905249 245 40512ft 445kts
25-Mar-18 02:46 53.471453 -52.095050 245 40516ft 445kts
25-Mar-18 02:47 53.420942 -52.285430 245 40519ft 445kts
25-Mar-18 02:48 53.370293 -52.474748 245 40522ft 446kts
25-Mar-18 02:49 53.319088 -52.664558 244 40525ft 446kts
25-Mar-18 02:50 53.267664 -52.853617 244 40491ft 447kts
25-Mar-18 02:51 53.215894 -53.042395 244 40495ft 448kts
25-Mar-18 02:52 53.163559 -53.231679 244 40508ft 448kts
25-Mar-18 02:53 53.111027 -53.420137 244 40511ft 449kts
25-Mar-18 02:54 53.058174 -53.608217 244 40514ft 449kts
25-Mar-18 02:55 53.004865 -53.796402 243 40517ft 449kts
25-Mar-18 02:56 52.951428 -53.983534 243 40520ft 449kts
25-Mar-18 02:57 52.897514 -54.170839 243 40522ft 452kts
25-Mar-18 02:58 52.842972 -54.358827 243 40524ft 452kts
25-Mar-18 02:59 52.788328 -54.545684 243 40526ft 452kts
25-Mar-18 03:00 52.733148 -54.732897 243 40525ft 453kts
25-Mar-18 03:01 52.677797 -54.919226 243 40526ft 453kts
25-Mar-18 03:02 52.622100 -55.105268 243 40527ft 454kts
25-Mar-18 03:03 52.565873 -55.291634 242 40528ft 454kts
25-Mar-18 03:04 52.509968 -55.477647 242 40529ft 455kts
25-Mar-18 03:05 52.452936 -55.662556 242 40529ft 455kts
25-Mar-18 03:06 52.394319 -55.846593 237 40529ft 454kts
25-Mar-18 03:07 52.318100 -56.011533 230 40529ft 455kts
25-Mar-18 03:08 52.239404 -56.173339 232 40527ft 455kts
25-Mar-18 03:09 52.161543 -56.336806 232 40524ft 455kts
25-Mar-18 03:10 52.084361 -56.500064 232 40519ft 456kts
25-Mar-18 03:11 52.006158 -56.663057 232 40514ft 456kts
25-Mar-18 03:12 51.927899 -56.824901 231 40511ft 457kts
25-Mar-18 03:13 51.849285 -56.986410 231 40509ft 457kts
25-Mar-18 03:14 51.770061 -57.148142 231 40505ft 458kts
25-Mar-18 03:15 51.690825 -57.308884 231 40508ft 459kts
25-Mar-18 03:16 51.611221 -57.469360 231 40508ft 459kts
25-Mar-18 03:17 51.531149 -57.629776 231 40507ft 459kts
25-Mar-18 03:18 51.451008 -57.789330 231 40512ft 460kts
25-Mar-18 03:19 51.370605 -57.948416 230 40505ft 460kts
25-Mar-18 03:20 51.289707 -58.107492 230 40521ft 461kts
25-Mar-18 03:21 51.208617 -58.265966 230 40518ft 462kts
25-Mar-18 03:22 51.127276 -58.423951 230 40513ft 461kts
25-Mar-18 03:23 51.045412 -58.581983 230 40508ft 462kts
25-Mar-18 03:24 50.963489 -58.739160 230 40534ft 462kts
25-Mar-18 03:25 50.881074 -58.896321 230 40535ft 463kts
25-Mar-18 03:26 50.798577 -59.052681 230 40536ft 463kts
25-Mar-18 03:27 50.715865 -59.208503 229 40540ft 463kts
25-Mar-18 03:28 50.632516 -59.364579 229 40541ft 464kts
25-Mar-18 03:29 50.549259 -59.519545 229 40543ft 465kts
25-Mar-18 03:30 50.465599 -59.674331 229 40545ft 465kts
25-Mar-18 03:31 50.381496 -59.829006 229 40548ft 465kts
25-Mar-18 03:32 50.297298 -59.982932 229 40552ft 466kts
25-Mar-18 03:33 50.212906 -60.136299 229 40557ft 466kts
25-Mar-18 03:34 50.127996 -60.289695 229 40542ft 466kts
25-Mar-18 03:35 50.043222 -60.441943 228 40553ft 466kts
25-Mar-18 03:36 49.957917 -60.594246 228 40564ft 466kts
25-Mar-18 03:37 49.872687 -60.745524 228 40568ft 466kts
25-Mar-18 03:38 49.787290 -60.896217 228 40572ft 466kts
25-Mar-18 03:39 49.715516 -61.022196 228 40573ft 467kts
25-Mar-18 03:40 49.615236 -61.197190 228 40573ft 467kts
25-Mar-18 03:41 49.528868 -61.346967 228 40571ft 468kts
25-Mar-18 03:42 49.442031 -61.496690 228 40566ft 468kts
25-Mar-18 03:43 49.369745 -61.620668 228 40561ft 468kts
25-Mar-18 03:44 49.282837 -61.768945 228 40553ft 468kts
25-Mar-18 03:45 49.195431 -61.917221 227 40589ft 468kts
25-Mar-18 03:46 49.108068 -62.064585 227 40585ft 470kts
25-Mar-18 03:47 49.020181 -62.211992 227 40581ft 470kts
25-Mar-18 03:48 48.931839 -62.359326 227 40577ft 470kts
25-Mar-18 03:49 48.843631 -62.505607 227 40572ft 470kts
25-Mar-18 03:50 48.754773 -62.652139 227 40540ft 471kts
25-Mar-18 03:51 48.666013 -62.797691 227 40532ft 471kts
25-Mar-18 03:52 48.577042 -62.942777 227 40533ft 471kts
25-Mar-18 03:53 48.487605 -63.087811 227 40535ft 471kts
25-Mar-18 03:54 48.398087 -63.232173 226 40555ft 472kts
25-Mar-18 03:55 48.308401 -63.376008 226 40558ft 472kts
25-Mar-18 03:56 48.218162 -63.519934 226 40561ft 473kts
25-Mar-18 03:57 48.127874 -63.663145 226 40577ft 473kts
25-Mar-18 03:58 48.037426 -63.805828 226 40575ft 473kts
25-Mar-18 03:59 47.946484 -63.948508 226 40571ft 473kts
25-Mar-18 04:00 47.855694 -64.090174 226 40566ft 473kts
25-Mar-18 04:01 47.764400 -64.231858 226 40561ft 473kts
25-Mar-18 04:02 47.673259 -64.372541 226 40556ft 473kts
25-Mar-18 04:03 47.581881 -64.512834 226 40529ft 473kts
25-Mar-18 04:04 47.490052 -64.653063 226 40525ft 473kts
25-Mar-18 04:05 47.398305 -64.792421 225 40538ft 473kts
25-Mar-18 04:06 47.306393 -64.931290 225 40536ft 474kts
25-Mar-18 04:07 47.213958 -65.070209 225 40533ft 474kts
25-Mar-18 04:08 47.121612 -65.208263 225 40529ft 475kts
25-Mar-18 04:09 47.028922 -65.346103 225 40524ft 475kts
25-Mar-18 04:10 46.935792 -65.483870 225 40517ft 474kts
25-Mar-18 04:11 46.842942 -65.620507 225 40510ft 474kts
25-Mar-18 04:12 46.749556 -65.757217 225 40504ft 474kts
25-Mar-18 04:13 46.656320 -65.893002 225 40499ft 474kts
25-Mar-18 04:14 46.562870 -66.028395 225 40503ft 475kts
25-Mar-18 04:15 46.468900 -66.163844 225 40498ft 475kts
25-Mar-18 04:16 46.375060 -66.298410 225 40494ft 475kts
25-Mar-18 04:17 46.281081 -66.432490 225 40492ft 475kts
25-Mar-18 04:18 46.186599 -66.566600 225 40500ft 475kts
25-Mar-18 04:19 46.092233 -66.699868 224 40495ft 475kts
25-Mar-18 04:20 45.997673 -66.832733 225 40510ft 476kts
25-Mar-18 04:21 45.902344 -66.966011 225 40512ft 477kts
25-Mar-18 04:22 45.807180 -67.098388 225 40504ft 477kts
25-Mar-18 04:23 45.711428 -67.230917 225 40503ft 478kts
25-Mar-18 04:24 45.615764 -67.362666 224 40498ft 478kts
25-Mar-18 04:25 45.520127 -67.494407 224 40496ft 478kts
25-Mar-18 04:26 45.423627 -67.625603 224 40494ft 478kts
25-Mar-18 04:27 45.327976 -67.756900 228 40491ft 478kts
25-Mar-18 04:28 45.243141 -67.901443 231 40501ft 477kts
25-Mar-18 04:29 45.158179 -68.046472 230 40499ft 477kts
25-Mar-18 04:30 45.073180 -68.190865 231 40497ft 478kts
25-Mar-18 04:31 44.988033 -68.334689 230 40507ft 477kts
25-Mar-18 04:32 44.902208 -68.478269 230 40504ft 477kts
25-Mar-18 04:33 44.816496 -68.620842 230 40506ft 477kts
25-Mar-18 04:34 44.730325 -68.763445 230 40508ft 477kts
25-Mar-18 04:35 44.644250 -68.905172 230 40503ft 477kts
25-Mar-18 04:36 44.557929 -69.046595 230 40494ft 477kts
25-Mar-18 04:37 44.471142 -69.188073 230 40477ft 478kts
25-Mar-18 04:38 44.384391 -69.328791 230 40471ft 478kts
25-Mar-18 04:39 44.297467 -69.469092 230 40470ft 478kts
25-Mar-18 04:40 44.210094 -69.609426 230 40490ft 478kts
25-Mar-18 04:41 44.122818 -69.748913 230 40491ft 478kts
25-Mar-18 04:42 44.035435 -69.887891 230 40497ft 478kts
25-Mar-18 04:43 43.947555 -70.026979 230 40498ft 478kts
25-Mar-18 04:44 43.859835 -70.165141 230 40496ft 478kts
25-Mar-18 04:45 43.771627 -70.303399 230 40492ft 478kts
25-Mar-18 04:46 43.683638 -70.440650 230 40490ft 477kts
25-Mar-18 04:47 43.595511 -70.577460 230 40488ft 477kts
25-Mar-18 04:48 43.507006 -70.714199 230 40483ft 476kts
25-Mar-18 04:49 43.418672 -70.850027 230 40478ft 477kts
25-Mar-18 04:50 43.330169 -70.985474 230 40471ft 476kts
25-Mar-18 04:51 43.241278 -71.120876 230 40472ft 476kts
25-Mar-18 04:52 43.152509 -71.255456 230 40471ft 476kts
25-Mar-18 04:53 43.063624 -71.389583 230 40469ft 476kts
25-Mar-18 04:54 42.974303 -71.523742 230 40464ft 476kts
25-Mar-18 04:55 42.885247 -71.656883 230 40469ft 475kts
25-Mar-18 04:56 42.795754 -71.790060 230 40451ft 475kts
25-Mar-18 04:57 42.706574 -71.922167 230 40435ft 474kts
25-Mar-18 04:58 42.617325 -72.053772 230 40444ft 474kts
25-Mar-18 04:59 42.527509 -72.185616 230 40444ft 474kts
25-Mar-18 05:00 42.437945 -72.316498 230 40442ft 474kts
25-Mar-18 05:01 42.348523 -72.447153 230 40424ft 474kts
25-Mar-18 05:02 42.258248 -72.577687 230 40418ft 474kts
25-Mar-18 05:03 42.167997 -72.707487 230 40445ft 475kts
25-Mar-18 05:04 42.086346 -72.845809 236 40440ft 473kts
25-Mar-18 05:05 42.004625 -72.985130 235 40445ft 474kts
25-Mar-18 05:06 41.923413 -73.123126 235 40436ft 470kts
25-Mar-18 05:07 41.841941 -73.260274 235 40418ft 470kts
25-Mar-18 05:08 41.760012 -73.397728 235 40411ft 471kts
25-Mar-18 05:09 41.678495 -73.534905 236 40431ft 472kts
25-Mar-18 05:10 41.596063 -73.672218 235 40433ft 472kts
25-Mar-18 05:11 41.513640 -73.808680 235 40435ft 473kts
25-Mar-18 05:12 41.421341 -73.935012 228 40421ft 477kts
25-Mar-18 05:13 41.327865 -74.060352 229 40413ft 476kts
25-Mar-18 05:14 41.234458 -74.184999 229 40411ft 476kts
25-Mar-18 05:15 41.153853 -74.320610 243 40411ft 465kts
25-Mar-18 05:16 41.087064 -74.467882 243 40408ft 464kts
25-Mar-18 05:17 41.020062 -74.613951 243 40404ft 464kts
25-Mar-18 05:18 40.952215 -74.759126 243 40399ft 464kts
25-Mar-18 05:19 40.884039 -74.904457 243 40389ft 464kts
25-Mar-18 05:20 40.816154 -75.048956 243 40386ft 463kts
25-Mar-18 05:21 40.748011 -75.193620 242 40389ft 463kts
25-Mar-18 05:22 40.679655 -75.337064 242 40402ft 462kts
25-Mar-18 05:23 40.614709 -75.482225 246 40411ft 459kts
25-Mar-18 05:24 40.552240 -75.628956 245 40414ft 458kts
25-Mar-18 05:25 40.488979 -75.774163 245 40408ft 458kts
25-Mar-18 05:26 40.419463 -75.914290 232 40401ft 468kts
25-Mar-18 05:27 40.324977 -76.033306 229 40399ft 469kts
25-Mar-18 05:28 40.231067 -76.151832 229 40391ft 469kts
25-Mar-18 05:29 40.137014 -76.270053 231 40388ft 468kts
25-Mar-18 05:30 40.066133 -76.408251 244 40389ft 457kts
25-Mar-18 05:31 40.000471 -76.550072 244 40393ft 458kts
25-Mar-18 05:32 39.934775 -76.691820 244 40393ft 454kts
25-Mar-18 05:33 39.869141 -76.831972 244 40388ft 453kts
25-Mar-18 05:34 39.803512 -76.971751 244 40381ft 453kts
25-Mar-18 05:35 39.737617 -77.111819 244 40357ft 453kts
25-Mar-18 05:36 39.662095 -77.243360 221 40336ft 473kts
25-Mar-18 05:37 39.537834 -77.299846 205 40361ft 473kts
25-Mar-18 05:38 39.414315 -77.359066 201 40421ft 479kts
25-Mar-18 05:39 39.278536 -77.359797 184 40406ft 491kts
25-Mar-18 05:40 39.141945 -77.357668 185 40383ft 490kts
25-Mar-18 05:41 39.005272 -77.357493 185 40380ft 489kts
25-Mar-18 05:42 38.869148 -77.357944 186 40370ft 489kts
25-Mar-18 05:43 38.732955 -77.360704 187 40375ft 488kts
25-Mar-18 05:44 38.597398 -77.361452 184 39844ft 485kts
25-Mar-18 05:45 38.465439 -77.347256 180 37683ft 466kts
25-Mar-18 05:46 38.341999 -77.344778 178 35775ft 427kts
25-Mar-18 05:47 38.256812 -77.250006 103 33534ft 423kts
25-Mar-18 05:48 38.289837 -77.126623 22 30898ft 364kts
25-Mar-18 05:49 38.375518 -77.126969 329 28421ft 293kts
25-Mar-18 05:50 38.436442 -77.188302 316 25932ft 272kts
25-Mar-18 05:51 38.489965 -77.248491 316 24314ft 240kts
25-Mar-18 05:52 38.538706 -77.303832 316 22713ft 232kts
25-Mar-18 05:53 38.586584 -77.358347 317 21116ft 229kts
25-Mar-18 05:54 38.633450 -77.411776 317 19511ft 221kts
25-Mar-18 05:55 38.678488 -77.463698 310 17913ft 215kts
25-Mar-18 05:56 38.685547 -77.541005 272 16356ft 228kts
25-Mar-18 05:57 38.640006 -77.575922 168 15010ft 305kts
25-Mar-18 05:58 38.629817 -77.483422 29 13174ft 252kts
25-Mar-18 05:59 38.690852 -77.454649 26 11585ft 236kts
25-Mar-18 06:00 38.676068 -77.383411 169 9973ft 258kts
25-Mar-18 06:01 38.639342 -77.425609 255 8682ft 229kts
25-Mar-18 06:02 38.627711 -77.518933 264 6820ft 226kts
25-Mar-18 06:03 38.621348 -77.585127 264 5510ft 224kts
25-Mar-18 06:04 38.612473 -77.677463 265 5382ft 226kts
25-Mar-18 06:05 38.606080 -77.744089 265 5389ft 226kts
25-Mar-18 06:06 38.632725 -77.793855 21 5392ft 209kts
25-Mar-18 06:07 38.654380 -77.727105 79 5393ft 212kts
25-Mar-18 06:08 38.661223 -77.651865 80 5397ft 212kts
25-Mar-18 06:09 38.668119 -77.576736 80 5409ft 212kts
25-Mar-18 06:10 38.675213 -77.501699 80 5413ft 213kts
25-Mar-18 06:11 38.662055 -77.434986 160 5401ft 225kts
25-Mar-18 06:12 38.625013 -77.488745 258 5415ft 227kts
25-Mar-18 06:13 38.615959 -77.568278 264 5402ft 225kts
25-Mar-18 06:14 38.608338 -77.647647 265 5394ft 225kts
25-Mar-18 06:15 38.600718 -77.727118 265 5383ft 225kts
25-Mar-18 06:16 38.614357 -77.794536 349 5391ft 209kts
25-Mar-18 06:17 38.649374 -77.742794 72 5392ft 211kts
25-Mar-18 06:18 38.659101 -77.668516 80 5390ft 212kts
25-Mar-18 06:19 38.666469 -77.593286 80 5403ft 213kts
25-Mar-18 06:20 38.673629 -77.518167 80 5410ft 213kts
25-Mar-18 06:21 38.673349 -77.443764 126 5402ft 220kts
25-Mar-18 06:22 38.628447 -77.471346 253 5426ft 227kts
25-Mar-18 06:23 38.617838 -77.550501 264 5408ft 226kts
25-Mar-18 06:24 38.610162 -77.630275 265 5398ft 225kts
25-Mar-18 06:25 38.602515 -77.709787 265 5391ft 225kts
25-Mar-18 06:26 38.603466 -77.786777 314 5380ft 214kts
25-Mar-18 06:27 38.645835 -77.757589 65 5396ft 211kts
25-Mar-18 06:28 38.657567 -77.683940 79 5403ft 212kts
25-Mar-18 06:29 38.664985 -77.608911 80 5405ft 214kts
25-Mar-18 06:30 38.672181 -77.533397 80 5405ft 213kts
25-Mar-18 06:31 38.678352 -77.458106 94 5405ft 215kts
25-Mar-18 06:32 38.632808 -77.455324 241 5427ft 227kts
25-Mar-18 06:33 38.619366 -77.533964 264 5420ft 225kts
25-Mar-18 06:34 38.611662 -77.613494 265 5400ft 226kts
25-Mar-18 06:35 38.604001 -77.693291 265 5413ft 225kts
25-Mar-18 06:36 38.597730 -77.772813 281 5405ft 222kts
25-Mar-18 06:37 38.640483 -77.772508 56 5422ft 211kts
25-Mar-18 06:38 38.655737 -77.699885 79 5415ft 212kts
25-Mar-18 06:39 38.663404 -77.624946 80 5410ft 212kts
25-Mar-18 06:40 38.670611 -77.549832 80 5409ft 213kts
25-Mar-18 06:41 38.677797 -77.474459 80 5411ft 213kts
25-Mar-18 06:42 38.640882 -77.441640 217 5409ft 228kts
25-Mar-18 06:43 38.621628 -77.516909 262 5416ft 225kts
25-Mar-18 06:44 38.613688 -77.596536 264 5417ft 225kts
25-Mar-18 06:45 38.606054 -77.675974 265 5410ft 225kts
25-Mar-18 06:46 38.598388 -77.755736 265 5408ft 225kts
25-Mar-18 06:47 38.633393 -77.785790 42 5422ft 210kts
25-Mar-18 06:48 38.653837 -77.716408 77 5412ft 212kts
25-Mar-18 06:49 38.661843 -77.641239 80 5408ft 212kts
25-Mar-18 06:50 38.669068 -77.566094 80 5414ft 213kts
25-Mar-18 06:51 38.676229 -77.490952 80 5412ft 213kts
25-Mar-18 06:52 38.652916 -77.434208 183 5411ft 228kts
25-Mar-18 06:53 38.623888 -77.499597 261 5413ft 225kts
25-Mar-18 06:54 38.615630 -77.578866 265 5411ft 224kts
25-Mar-18 06:55 38.608018 -77.658463 265 5410ft 225kts
25-Mar-18 06:56 38.600394 -77.737915 265 5411ft 225kts
25-Mar-18 06:57 38.623718 -77.793333 12 5416ft 209kts
25-Mar-18 06:58 38.651775 -77.730925 75 5411ft 212kts
25-Mar-18 06:59 38.660382 -77.656205 80 5408ft 212kts
25-Mar-18 07:00 38.667719 -77.581038 75 5063ft 210kts
25-Mar-18 07:01 38.700799 -77.522626 43 4768ft 205kts
25-Mar-18 07:02 38.741230 -77.472360 41 4419ft 198kts
25-Mar-18 07:03 38.794684 -77.461608 1 3686ft 177kts
25-Mar-18 07:04 38.834692 -77.461312 3 2343ft 122kts
25-Mar-18 07:05 38.868008 -77.460849 2 1725ft 134kts
25-Mar-18 07:06 38.902623 -77.460354 2 1035ft 116kts
25-Mar-18 07:07 38.938019 -77.459911 2 381ft 126kts
25-Mar-18 07:08 38.955707 -77.458496 33 326ft 20kts
25-Mar-18 07:09 38.957084 -77.456164 149 326ft 0kts

Navigation Log

Ident Type
Flight plan parsing failed, navigation log unavailable